createdAt,value
2019-05-22T00:00:13.174Z,9.65
2019-05-22T00:02:44.645Z,9.66
2019-05-22T00:05:18.958Z,9.66
2019-05-22T00:07:48.919Z,9.65
2019-05-22T00:10:20.618Z,9.71
2019-05-22T00:12:49.603Z,9.66
2019-05-22T00:15:18.728Z,9.66
2019-05-22T00:17:49.083Z,9.66
2019-05-22T00:20:20.231Z,9.65
2019-05-22T00:22:51.169Z,9.66
2019-05-22T00:25:21.153Z,9.66
2019-05-22T00:27:53.354Z,9.67
2019-05-22T00:30:24.822Z,9.65
2019-05-22T00:32:53.289Z,9.64
2019-05-22T00:35:25.263Z,9.64
2019-05-22T00:37:54.383Z,9.62
2019-05-22T00:40:24.420Z,9.60
2019-05-22T00:43:03.452Z,9.59
2019-05-22T00:45:25.281Z,9.57
2019-05-22T00:47:54.533Z,9.58
2019-05-22T00:50:28.872Z,9.55
2019-05-22T00:53:09.571Z,9.56
2019-05-22T00:55:40.394Z,9.58
2019-05-22T00:58:20.942Z,9.58
2019-05-22T01:00:52.609Z,9.63
2019-05-22T01:03:23.295Z,9.61
2019-05-22T01:05:52.068Z,9.58
2019-05-22T01:08:22.059Z,9.55
2019-05-22T01:10:54.830Z,9.53
2019-05-22T01:13:25.496Z,9.52
2019-05-22T01:15:55.920Z,9.52
2019-05-22T01:18:26.087Z,9.51
2019-05-22T01:20:58.348Z,9.55
2019-05-22T01:23:30.223Z,9.52
2019-05-22T01:26:01.124Z,9.51
2019-05-22T01:28:30.111Z,9.48
2019-05-22T01:31:00.587Z,9.49
2019-05-22T01:33:32.238Z,9.48
2019-05-22T01:36:02.949Z,9.49
2019-05-22T01:38:33.436Z,9.47
2019-05-22T01:41:18.508Z,9.49
2019-05-22T01:43:48.840Z,9.48
2019-05-22T01:46:19.360Z,9.48
2019-05-22T01:48:51.000Z,9.49
2019-05-22T01:51:20.733Z,9.48
2019-05-22T01:53:52.293Z,9.50
2019-05-22T01:56:21.612Z,9.49
2019-05-22T01:58:51.193Z,9.49
2019-05-22T02:01:20.877Z,9.49
2019-05-22T02:03:50.913Z,9.49
2019-05-22T02:06:22.116Z,9.49
2019-05-22T02:08:57.052Z,9.48
2019-05-22T02:11:27.269Z,9.51
2019-05-22T02:14:12.348Z,9.51
2019-05-22T02:16:56.283Z,9.53
2019-05-22T02:19:16.489Z,9.53
2019-05-22T02:21:46.023Z,9.55
2019-05-22T02:24:15.964Z,9.56
2019-05-22T02:26:46.159Z,9.56
2019-05-22T02:29:16.726Z,9.56
2019-05-22T02:31:45.212Z,9.58
2019-05-22T02:34:14.978Z,9.57
2019-05-22T02:36:45.285Z,9.57
2019-05-22T02:39:28.746Z,9.57
2019-05-22T02:42:00.269Z,9.56
2019-05-22T02:44:29.745Z,9.56
2019-05-22T02:47:16.578Z,9.56
2019-05-22T02:49:32.748Z,9.55
2019-05-22T02:52:02.062Z,9.54
2019-05-22T02:54:32.745Z,9.53
2019-05-22T02:57:02.554Z,9.54
2019-05-22T02:59:31.544Z,9.54
2019-05-22T03:02:02.132Z,9.52
2019-05-22T03:04:53.446Z,9.57
2019-05-22T03:07:23.838Z,9.53
2019-05-22T03:09:53.222Z,9.56
2019-05-22T03:12:22.471Z,9.57
2019-05-22T03:14:51.904Z,9.55
2019-05-22T03:17:30.688Z,9.56
2019-05-22T03:20:01.354Z,9.52
2019-05-22T03:22:37.385Z,9.56
2019-05-22T03:25:09.511Z,9.54
2019-05-22T03:27:44.015Z,9.58
2019-05-22T03:30:22.588Z,9.54
2019-05-22T03:32:52.061Z,9.56
2019-05-22T03:35:22.573Z,9.56
2019-05-22T03:37:51.625Z,9.55
2019-05-22T03:40:20.637Z,9.56
2019-05-22T03:42:50.843Z,9.56
2019-05-22T03:45:21.235Z,9.58
2019-05-22T03:47:52.263Z,9.56
2019-05-22T03:50:20.885Z,9.56
2019-05-22T03:52:49.282Z,9.54
2019-05-22T03:55:17.816Z,9.61
2019-05-22T03:57:46.555Z,9.61
2019-05-22T04:00:18.780Z,9.60
2019-05-22T04:02:50.789Z,9.65
2019-05-22T04:05:20.823Z,9.63
2019-05-22T04:07:51.158Z,9.62
2019-05-22T04:10:19.864Z,9.61
2019-05-22T04:12:48.446Z,9.58
2019-05-22T04:15:17.936Z,9.63
2019-05-22T04:17:46.644Z,9.62
2019-05-22T04:20:20.204Z,9.61
2019-05-22T04:22:51.202Z,9.60
2019-05-22T04:25:19.575Z,9.58
2019-05-22T04:27:48.393Z,9.60
2019-05-22T04:30:18.612Z,9.63
2019-05-22T04:32:49.098Z,9.64
2019-05-22T04:35:19.379Z,9.63
2019-05-22T04:37:49.645Z,9.61
2019-05-22T04:40:28.383Z,9.59
2019-05-22T04:42:58.968Z,9.61
2019-05-22T04:45:28.446Z,9.62
2019-05-22T04:48:01.139Z,9.64
2019-05-22T04:50:31.217Z,9.64
2019-05-22T04:53:00.497Z,9.63
2019-05-22T04:55:30.700Z,9.65
2019-05-22T04:58:04.855Z,9.64
2019-05-22T05:00:35.194Z,9.67
2019-05-22T05:03:05.718Z,9.67
2019-05-22T05:05:42.237Z,9.67
2019-05-22T05:08:12.117Z,9.68
2019-05-22T05:10:43.842Z,9.66
2019-05-22T05:13:12.416Z,9.67
2019-05-22T05:15:40.817Z,9.66
2019-05-22T05:18:09.702Z,9.66
2019-05-22T05:20:39.108Z,9.66
2019-05-22T05:23:07.937Z,9.66
2019-05-22T05:25:36.593Z,9.67
2019-05-22T05:28:07.258Z,9.70
2019-05-22T05:30:35.653Z,9.74
2019-05-22T05:33:05.470Z,9.76
2019-05-22T05:35:35.170Z,9.76
2019-05-22T05:38:05.518Z,9.77
2019-05-22T05:40:40.203Z,9.75
2019-05-22T05:43:11.621Z,9.76
2019-05-22T05:45:42.286Z,9.79
2019-05-22T05:48:13.747Z,9.79
2019-05-22T05:51:02.209Z,9.80
2019-05-22T05:53:33.533Z,9.82
2019-05-22T05:56:16.452Z,9.84
2019-05-22T05:58:45.461Z,9.88
2019-05-22T06:01:20.360Z,9.86
2019-05-22T06:03:49.624Z,9.87
2019-05-22T06:06:25.953Z,9.92
2019-05-22T06:08:54.916Z,9.99
2019-05-22T06:11:40.928Z,10.05
2019-05-22T06:14:11.745Z,10.09
2019-05-22T06:16:53.831Z,10.16
2019-05-22T06:19:23.724Z,10.22
2019-05-22T06:21:52.458Z,10.29
2019-05-22T06:24:25.586Z,10.29
2019-05-22T06:26:57.596Z,10.37
2019-05-22T06:29:29.295Z,10.38
2019-05-22T06:32:07.838Z,10.40
2019-05-22T06:34:37.730Z,10.44
2019-05-22T06:37:44.514Z,10.48
2019-05-22T06:40:13.788Z,10.44
2019-05-22T06:42:44.975Z,10.44
2019-05-22T06:45:13.441Z,10.48
2019-05-22T06:47:41.831Z,10.51
2019-05-22T06:50:11.039Z,10.59
2019-05-22T06:52:39.763Z,10.60
2019-05-22T06:55:09.009Z,10.68
2019-05-22T06:57:37.669Z,10.69
2019-05-22T07:00:14.231Z,10.76
2019-05-22T07:02:39.687Z,10.82
2019-05-22T07:05:09.196Z,10.89
2019-05-22T07:07:37.839Z,10.95
2019-05-22T07:10:08.235Z,11.01
2019-05-22T07:12:37.058Z,11.05
2019-05-22T07:15:10.435Z,11.04
2019-05-22T07:17:39.674Z,11.06
2019-05-22T07:20:08.901Z,11.11
2019-05-22T07:22:37.531Z,11.20
2019-05-22T07:25:09.693Z,11.26
2019-05-22T07:27:38.789Z,11.30
2019-05-22T07:30:09.727Z,11.36
2019-05-22T07:32:39.030Z,11.37
2019-05-22T07:35:08.637Z,11.39
2019-05-22T07:37:45.418Z,11.41
2019-05-22T07:40:14.432Z,11.36
2019-05-22T07:42:42.827Z,11.32
2019-05-22T07:45:11.951Z,11.36
2019-05-22T07:47:42.617Z,11.41
2019-05-22T07:50:12.921Z,11.45
2019-05-22T07:52:41.483Z,11.41
2019-05-22T07:55:10.342Z,11.35
2019-05-22T07:57:41.058Z,11.29
2019-05-22T08:00:10.603Z,11.33
2019-05-22T08:02:42.047Z,11.44
2019-05-22T08:05:12.813Z,11.55
2019-05-22T08:07:41.619Z,11.64
2019-05-22T08:10:13.915Z,11.70
2019-05-22T08:12:43.946Z,11.82
2019-05-22T08:15:13.156Z,11.81
2019-05-22T08:17:42.625Z,11.87
2019-05-22T08:20:11.846Z,11.95
2019-05-22T08:22:40.674Z,12.02
2019-05-22T08:25:09.933Z,12.07
2019-05-22T08:27:39.821Z,12.13
2019-05-22T08:30:09.109Z,12.26
2019-05-22T08:32:38.642Z,12.42
2019-05-22T08:35:09.038Z,12.49
2019-05-22T08:37:39.642Z,12.56
2019-05-22T08:40:11.663Z,12.60
2019-05-22T08:42:41.367Z,12.50
2019-05-22T08:45:11.592Z,12.56
2019-05-22T08:47:40.579Z,12.70
2019-05-22T08:50:12.279Z,12.75
2019-05-22T08:52:44.796Z,12.94
2019-05-22T08:55:14.424Z,12.84
2019-05-22T08:57:43.527Z,12.72
2019-05-22T09:00:19.275Z,12.59
2019-05-22T09:02:48.232Z,12.62
2019-05-22T09:05:20.956Z,12.54
2019-05-22T09:07:47.527Z,12.52
2019-05-22T09:10:16.254Z,12.41
2019-05-22T09:12:44.638Z,12.38
2019-05-22T09:15:13.712Z,12.44
2019-05-22T09:17:42.370Z,12.51
2019-05-22T09:20:11.946Z,12.44
2019-05-22T09:22:41.599Z,12.37
2019-05-22T09:25:13.827Z,12.33
2019-05-22T09:27:43.109Z,12.42
2019-05-22T09:30:13.090Z,12.51
2019-05-22T09:32:41.734Z,12.72
2019-05-22T09:35:11.767Z,12.80
2019-05-22T09:37:40.536Z,13.01
2019-05-22T09:40:09.252Z,12.96
2019-05-22T09:42:38.312Z,13.01
2019-05-22T09:45:08.501Z,13.02
2019-05-22T09:47:38.714Z,12.97
2019-05-22T09:50:11.062Z,13.16
2019-05-22T09:52:56.226Z,13.02
2019-05-22T09:55:13.042Z,13.10
2019-05-22T09:57:43.177Z,12.96
2019-05-22T10:00:12.957Z,12.92
2019-05-22T10:02:41.993Z,13.08
2019-05-22T10:05:11.632Z,13.16
2019-05-22T10:07:57.753Z,13.23
2019-05-22T10:10:14.011Z,13.19
2019-05-22T10:12:42.754Z,13.42
2019-05-22T10:15:13.150Z,13.44
2019-05-22T10:17:47.334Z,13.28
2019-05-22T10:20:17.319Z,13.21
2019-05-22T10:22:46.285Z,13.12
2019-05-22T10:25:17.194Z,12.99
2019-05-22T10:27:47.117Z,13.02
2019-05-22T10:30:19.185Z,12.94
2019-05-22T10:32:48.021Z,12.82
2019-05-22T10:35:17.398Z,12.80
2019-05-22T10:37:46.135Z,12.98
2019-05-22T10:40:15.652Z,13.16
2019-05-22T10:42:45.430Z,13.20
2019-05-22T10:45:14.146Z,13.15
2019-05-22T10:47:44.054Z,13.17
2019-05-22T10:50:13.869Z,13.42
2019-05-22T10:52:42.835Z,13.45
2019-05-22T10:55:12.924Z,13.64
2019-05-22T10:57:42.921Z,13.80
2019-05-22T11:00:14.936Z,13.95
2019-05-22T11:02:43.746Z,14.00
2019-05-22T11:05:13.079Z,14.08
2019-05-22T11:07:41.628Z,14.20
2019-05-22T11:10:10.859Z,14.20
2019-05-22T11:12:39.878Z,14.14
2019-05-22T11:15:09.424Z,14.23
2019-05-22T11:17:39.294Z,14.41
2019-05-22T11:20:09.979Z,14.30
2019-05-22T11:22:38.825Z,14.15
2019-05-22T11:25:08.737Z,13.91
2019-05-22T11:27:37.726Z,13.82
2019-05-22T11:30:11.254Z,13.60
2019-05-22T11:32:40.222Z,13.61
2019-05-22T11:35:10.251Z,13.66
2019-05-22T11:37:39.360Z,13.79
2019-05-22T11:40:08.867Z,13.76
2019-05-22T11:42:39.215Z,13.66
2019-05-22T11:45:11.198Z,13.69
2019-05-22T11:47:41.017Z,13.79
2019-05-22T11:50:11.906Z,13.84
2019-05-22T11:52:42.108Z,13.75
2019-05-22T11:55:12.519Z,13.77
2019-05-22T11:57:43.231Z,13.80
2019-05-22T12:00:12.985Z,13.83
2019-05-22T12:02:41.538Z,13.66
2019-05-22T12:05:10.487Z,13.68
2019-05-22T12:07:43.732Z,13.62
2019-05-22T12:10:14.792Z,13.51
2019-05-22T12:12:44.809Z,13.45
2019-05-22T12:15:15.156Z,13.19
2019-05-22T12:17:44.880Z,13.11
2019-05-22T12:20:15.181Z,12.83
2019-05-22T12:22:43.628Z,13.02
2019-05-22T12:25:14.871Z,13.16
2019-05-22T12:27:43.892Z,13.44
2019-05-22T12:30:13.735Z,13.51
2019-05-22T12:32:42.368Z,13.51
2019-05-22T12:35:13.743Z,13.78
2019-05-22T12:37:42.953Z,13.76
2019-05-22T12:40:14.209Z,14.13
2019-05-22T12:42:42.599Z,14.06
2019-05-22T12:45:12.817Z,13.98
2019-05-22T12:47:43.277Z,14.05
2019-05-22T12:50:15.688Z,14.53
2019-05-22T12:52:47.124Z,14.75
2019-05-22T12:55:17.209Z,15.01
2019-05-22T12:57:46.052Z,14.91
2019-05-22T13:00:15.645Z,15.18
2019-05-22T13:02:44.581Z,15.11
2019-05-22T13:05:14.529Z,15.37
2019-05-22T13:07:43.304Z,15.12
2019-05-22T13:10:12.144Z,15.28
2019-05-22T13:12:40.545Z,15.64
2019-05-22T13:15:11.014Z,15.63
2019-05-22T13:17:40.884Z,15.99
2019-05-22T13:20:12.266Z,16.13
2019-05-22T13:22:43.991Z,16.26
2019-05-22T13:25:15.449Z,16.14
2019-05-22T13:27:45.808Z,16.08
2019-05-22T13:30:17.142Z,15.83
2019-05-22T13:32:46.258Z,16.03
2019-05-22T13:35:17.670Z,16.04
2019-05-22T13:37:46.354Z,16.40
2019-05-22T13:40:27.026Z,16.14
2019-05-22T13:42:45.757Z,16.10
2019-05-22T13:45:28.688Z,16.25
2019-05-22T13:47:46.112Z,16.24
2019-05-22T13:50:17.387Z,16.49
2019-05-22T13:52:46.637Z,16.46
2019-05-22T13:55:15.770Z,16.56
2019-05-22T13:57:44.584Z,16.55
2019-05-22T14:00:16.529Z,16.81
2019-05-22T14:02:44.923Z,16.48
2019-05-22T14:05:14.115Z,16.51
2019-05-22T14:07:42.686Z,16.41
2019-05-22T14:10:11.652Z,16.61
2019-05-22T14:12:40.104Z,16.46
2019-05-22T14:15:09.239Z,16.52
2019-05-22T14:17:37.785Z,16.50
2019-05-22T14:20:09.528Z,16.57
2019-05-22T14:22:38.443Z,16.55
2019-05-22T14:25:08.682Z,16.57
2019-05-22T14:27:41.452Z,16.64
2019-05-22T14:30:09.431Z,16.91
2019-05-22T14:32:38.163Z,16.22
2019-05-22T14:35:07.162Z,16.50
2019-05-22T14:37:35.618Z,16.48
2019-05-22T14:40:07.277Z,16.75
2019-05-22T14:42:35.641Z,16.68
2019-05-22T14:45:05.930Z,16.81
2019-05-22T14:47:34.319Z,16.87
2019-05-22T14:50:03.535Z,16.72
2019-05-22T14:52:32.673Z,16.38
2019-05-22T14:55:01.657Z,16.47
2019-05-22T14:57:30.174Z,16.34
2019-05-22T14:59:58.989Z,16.44
2019-05-22T15:02:28.101Z,16.43
2019-05-22T15:04:57.444Z,16.56
2019-05-22T15:07:25.996Z,16.57
2019-05-22T15:09:54.420Z,16.67
2019-05-22T15:12:22.870Z,16.84
2019-05-22T15:14:51.323Z,16.89
2019-05-22T15:17:31.869Z,16.73
2019-05-22T15:19:50.840Z,16.43
2019-05-22T15:22:19.741Z,16.69
2019-05-22T15:24:48.194Z,16.74
2019-05-22T15:27:16.587Z,16.73
2019-05-22T15:29:44.968Z,16.74
2019-05-22T15:32:13.869Z,16.68
2019-05-22T15:34:43.260Z,16.77
2019-05-22T15:37:13.563Z,16.85
2019-05-22T15:39:43.424Z,16.87
2019-05-22T15:42:15.605Z,16.94
2019-05-22T15:44:44.824Z,17.03
2019-05-22T15:47:13.612Z,17.23
2019-05-22T15:49:44.302Z,17.13
2019-05-22T15:52:16.207Z,17.20
2019-05-22T15:54:46.059Z,16.92
2019-05-22T15:57:17.799Z,16.70
2019-05-22T15:59:48.703Z,16.79
2019-05-22T16:02:21.752Z,16.93
2019-05-22T16:04:50.727Z,16.73
2019-05-22T16:07:19.130Z,16.91
2019-05-22T16:09:50.797Z,16.90
2019-05-22T16:12:19.635Z,16.83
2019-05-22T16:14:50.206Z,16.80
2019-05-22T16:17:19.211Z,16.70
2019-05-22T16:19:48.840Z,16.58
2019-05-22T16:22:17.474Z,16.64
2019-05-22T16:24:46.017Z,16.59
2019-05-22T16:27:16.258Z,16.68
2019-05-22T16:29:45.106Z,16.81
2019-05-22T16:32:16.652Z,16.91
2019-05-22T16:34:45.374Z,16.68
2019-05-22T16:37:14.137Z,16.65
2019-05-22T16:39:42.601Z,16.52
2019-05-22T16:42:11.643Z,16.64
2019-05-22T16:44:40.423Z,16.63
2019-05-22T16:47:11.169Z,16.35
2019-05-22T16:49:39.984Z,16.26
2019-05-22T16:52:10.650Z,16.18
2019-05-22T16:54:41.243Z,16.25
2019-05-22T16:57:11.580Z,16.27
2019-05-22T16:59:40.875Z,16.22
2019-05-22T17:02:11.997Z,16.08
2019-05-22T17:04:40.903Z,16.07
2019-05-22T17:07:09.361Z,16.01
2019-05-22T17:09:39.712Z,16.03
2019-05-22T17:12:11.341Z,16.06
2019-05-22T17:14:41.327Z,16.01
2019-05-22T17:17:11.530Z,16.00
2019-05-22T17:19:40.181Z,15.68
2019-05-22T17:22:09.585Z,15.69
2019-05-22T17:24:38.238Z,15.63
2019-05-22T17:27:08.054Z,15.57
2019-05-22T17:29:36.838Z,15.48
2019-05-22T17:32:06.533Z,15.31
2019-05-22T17:34:37.468Z,15.26
2019-05-22T17:37:13.515Z,15.09
2019-05-22T17:39:45.410Z,14.97
2019-05-22T17:42:19.965Z,14.97
2019-05-22T17:44:50.651Z,14.96
2019-05-22T17:47:21.751Z,14.81
2019-05-22T17:49:50.910Z,14.79
2019-05-22T17:52:21.125Z,14.67
2019-05-22T17:54:52.039Z,14.63
2019-05-22T17:57:22.593Z,14.60
2019-05-22T17:59:53.158Z,14.55
2019-05-22T18:02:23.858Z,14.48
2019-05-22T18:04:52.538Z,14.42
2019-05-22T18:07:22.248Z,14.40
2019-05-22T18:09:50.718Z,14.34
2019-05-22T18:12:19.951Z,14.30
2019-05-22T18:14:48.914Z,14.24
2019-05-22T18:17:17.745Z,14.17
2019-05-22T18:19:46.891Z,14.16
2019-05-22T18:22:15.799Z,14.08
2019-05-22T18:24:44.968Z,14.04
2019-05-22T18:27:13.686Z,13.93
2019-05-22T18:29:42.378Z,13.82
2019-05-22T18:32:11.676Z,13.72
2019-05-22T18:34:40.467Z,13.65
2019-05-22T18:37:08.848Z,13.59
2019-05-22T18:39:37.745Z,13.48
2019-05-22T18:42:06.063Z,13.34
2019-05-22T18:44:34.821Z,13.29
2019-05-22T18:47:05.238Z,13.24
2019-05-22T18:49:33.633Z,13.18
2019-05-22T18:52:02.299Z,13.20
2019-05-22T18:54:30.812Z,13.15
2019-05-22T18:56:59.547Z,13.08
2019-05-22T18:59:27.974Z,13.03
2019-05-22T19:01:56.947Z,12.95
2019-05-22T19:04:25.387Z,12.90
2019-05-22T19:06:56.018Z,12.84
2019-05-22T19:09:24.946Z,12.78
2019-05-22T19:11:53.634Z,12.74
2019-05-22T19:14:22.220Z,12.69
2019-05-22T19:16:51.004Z,12.62
2019-05-22T19:19:20.013Z,12.55
2019-05-22T19:21:48.450Z,12.50
2019-05-22T19:24:16.991Z,12.50
2019-05-22T19:26:45.914Z,12.48
2019-05-22T19:29:14.563Z,12.43
2019-05-22T19:31:42.970Z,12.40
2019-05-22T19:34:12.212Z,12.37
2019-05-22T19:36:40.584Z,12.33
2019-05-22T19:39:09.696Z,12.28
2019-05-22T19:41:38.158Z,12.22
2019-05-22T19:44:07.622Z,12.20
2019-05-22T19:46:36.290Z,12.21
2019-05-22T19:49:05.726Z,12.22
2019-05-22T19:51:34.691Z,12.19
2019-05-22T19:54:04.324Z,12.17
2019-05-22T19:56:33.681Z,12.17
2019-05-22T19:59:02.775Z,12.17
2019-05-22T20:01:33.038Z,12.16
2019-05-22T20:04:02.307Z,12.15
2019-05-22T20:06:30.886Z,12.15
2019-05-22T20:08:59.298Z,12.15
2019-05-22T20:11:27.823Z,12.17
2019-05-22T20:13:56.668Z,12.19
2019-05-22T20:16:25.142Z,12.18
2019-05-22T20:18:54.033Z,12.14
2019-05-22T20:21:22.703Z,12.13
2019-05-22T20:23:51.373Z,12.13
2019-05-22T20:26:20.942Z,12.11
2019-05-22T20:28:49.666Z,12.07
2019-05-22T20:31:18.139Z,12.04
2019-05-22T20:33:46.794Z,12.02
2019-05-22T20:36:16.455Z,11.97
2019-05-22T20:38:45.301Z,11.95
2019-05-22T20:41:13.714Z,11.94
2019-05-22T20:43:43.873Z,11.91
2019-05-22T20:46:15.112Z,11.90
2019-05-22T20:48:43.560Z,11.89
2019-05-22T20:51:19.217Z,11.86
2019-05-22T20:53:54.308Z,11.85
2019-05-22T20:56:21.126Z,11.84
2019-05-22T20:58:50.082Z,11.83
2019-05-22T21:01:18.961Z,11.82
2019-05-22T21:03:47.343Z,11.86
2019-05-22T21:06:18.318Z,11.82
2019-05-22T21:08:47.284Z,11.82
2019-05-22T21:11:17.587Z,11.79
2019-05-22T21:13:46.309Z,11.79
2019-05-22T21:16:16.944Z,11.79
2019-05-22T21:18:50.003Z,11.81
2019-05-22T21:21:20.435Z,11.81
2019-05-22T21:23:49.156Z,11.80
2019-05-22T21:26:18.829Z,11.78
2019-05-22T21:28:48.679Z,11.79
2019-05-22T21:31:18.250Z,11.78
2019-05-22T21:33:46.979Z,11.78
2019-05-22T21:36:16.573Z,11.77
2019-05-22T21:38:46.402Z,11.76
2019-05-22T21:41:14.795Z,11.76
2019-05-22T21:43:43.178Z,11.76
2019-05-22T21:46:12.282Z,11.76
2019-05-22T21:48:41.509Z,11.75
2019-05-22T21:51:10.559Z,11.74
2019-05-22T21:53:39.528Z,11.69
2019-05-22T21:56:09.240Z,11.68
2019-05-22T21:58:38.440Z,11.67
2019-05-22T22:01:10.365Z,11.65
2019-05-22T22:03:40.473Z,11.62
2019-05-22T22:06:09.770Z,11.56
2019-05-22T22:08:38.152Z,11.60
2019-05-22T22:11:08.196Z,11.55
2019-05-22T22:13:39.340Z,11.52
2019-05-22T22:16:08.587Z,11.50
2019-05-22T22:18:38.994Z,11.46
2019-05-22T22:21:08.074Z,11.40
2019-05-22T22:23:37.327Z,11.40
2019-05-22T22:26:24.180Z,11.37
2019-05-22T22:28:38.263Z,11.34
2019-05-22T22:31:11.383Z,11.36
2019-05-22T22:33:42.260Z,11.31
2019-05-22T22:36:11.202Z,11.28
2019-05-22T22:38:40.178Z,11.27
2019-05-22T22:41:09.895Z,11.27
2019-05-22T22:43:39.522Z,11.26
2019-05-22T22:46:12.643Z,11.26
2019-05-22T22:48:43.296Z,11.26
2019-05-22T22:51:13.028Z,11.27
2019-05-22T22:53:44.466Z,11.24
2019-05-22T22:56:14.103Z,11.22
2019-05-22T22:58:42.791Z,11.22
2019-05-22T23:01:15.208Z,11.19
2019-05-22T23:03:47.379Z,11.18
2019-05-22T23:06:17.319Z,11.19
2019-05-22T23:08:47.260Z,11.19
2019-05-22T23:11:17.058Z,11.18
2019-05-22T23:13:46.300Z,11.18
2019-05-22T23:16:16.059Z,11.18
2019-05-22T23:19:04.360Z,11.16
2019-05-22T23:21:33.486Z,11.15
2019-05-22T23:24:00.737Z,11.12
2019-05-22T23:26:30.095Z,11.13
2019-05-22T23:28:59.289Z,11.09
2019-05-22T23:31:29.251Z,11.06
2019-05-22T23:33:59.195Z,11.04
2019-05-22T23:36:28.528Z,11.03
2019-05-22T23:38:59.512Z,10.96
2019-05-22T23:41:30.640Z,10.91
2019-05-22T23:43:59.800Z,10.87
2019-05-22T23:46:29.135Z,10.84
2019-05-22T23:48:59.343Z,10.78
2019-05-22T23:51:28.697Z,10.73
2019-05-22T23:53:58.271Z,10.66
2019-05-22T23:56:27.765Z,10.62
2019-05-22T23:58:58.479Z,10.53
